Flight Track Log - Related Links

Times and Time Zones

All times are in EST time to prevent confusion due to time zone crossing. See the N444WR flight status page for this flight to view local times or setup timezone preferences in your user account.

Time Position Orientation Groundspeed Altitude Reporting Facility
EST Latitude Longitude Course Direction KTS MPH feet Rate Location/Type
Tue 11:20:01 AM 35.1500 -89.3500 158° South 147 169 4,300  Level KMEM
Tue 11:20:49 AM 35.1167 -89.3333 158° South 149 171 5,000 876 Climbing KMEM
Tue 11:22:18 AM 35.0542 -89.3153 167° South 157 181 6,300 789 Climbing Memphis Center
Tue 11:23:21 AM 35.0131 -89.2956 159° South 156 180 7,000 384 Climbing Memphis Center
Tue 11:24:23 AM 34.9558 -89.2697 160° South 179 206 7,100 48 Climbing Memphis Center
Tue 11:25:25 AM 34.9047 -89.2456 159° South 191 220 7,100  Level Memphis Center
Tue 11:26:27 AM 34.8528 -89.2233 161° South 194 223 7,100  Level Memphis Center
Tue 11:27:29 AM 34.8028 -89.2003 159° South 192 221 7,100  Level Memphis Center
Tue 11:28:31 AM 34.7517 -89.1769 159° South 192 221 7,100  Level Memphis Center
Tue 11:29:33 AM 34.7011 -89.1531 159° South 192 221 7,100  Level Memphis Center
Tue 11:30:35 AM 34.6508 -89.1311 160° South 191 220 7,100  Level Memphis Center
Tue 11:31:37 AM 34.6003 -89.1072 159° South 191 220 7,100  Level Memphis Center
Tue 11:32:39 AM 34.5422 -89.0808 159° South 190 219 7,100  Level Memphis Center
Tue 11:33:41 AM 34.4917 -89.0578 159° South 191 220 7,100  Level Memphis Center
Tue 11:34:43 AM 34.4408 -89.0344 159° South 193 222 7,100  Level Memphis Center
Tue 11:35:36 AM 34.3925 -89.0147 161° South 191 220 7,100  Level Memphis Center
Tue 11:35:45 AM 34.3897 -89.0125 147° Southeast 191 220 7,100  Level Memphis Center
Tue 11:36:47 AM 34.3389 -88.9897 160° South 192 221 7,100  Level Memphis Center
Tue 11:37:08 AM 34.3197 -88.9814 160° South 191 220 7,100  Level Memphis Center
Tue 11:37:49 AM 34.2886 -88.9664 158° South 193 222 7,100  Level Memphis Center
Tue 11:38:08 AM 34.2656 -88.9561 160° South 192 221 7,100  Level Memphis Center
Tue 11:38:51 AM 34.2383 -88.9436 159° South 191 220 7,100  Level Memphis Center
Tue 11:39:09 AM 34.2156 -88.9356 164° South 192 221 7,100  Level Memphis Center
Tue 11:39:53 AM 34.1861 -88.9206 157° South 194 223 7,100  Level Memphis Center
Tue 11:40:10 AM 34.1656 -88.9128 163° South 194 223 7,100  Level Memphis Center
Tue 11:40:55 AM 34.1283 -88.8939 157° South 191 220 7,100  Level Memphis Center
Tue 11:41:11 AM 34.1156 -88.8897 165° South 194 223 7,100  Level Memphis Center
Tue 11:41:57 AM 34.0761 -88.8717 159° South 194 223 7,100  Level Memphis Center
Tue 11:42:18 AM 34.0553 -88.8619 159° South 196 226 7,100  Level Memphis Center
Tue 11:43:00 AM 34.0228 -88.8481 160° South 200 230 7,100  Level Memphis Center
Tue 11:43:18 AM 34.0050 -88.8392 157° South 197 227 7,100  Level Memphis Center
Tue 11:44:02 AM 33.9708 -88.8242 160° South 196 226 7,100  Level Memphis Center
Tue 11:44:19 AM 33.9531 -88.8164 160° South 197 227 7,100  Level Memphis Center
Tue 11:45:04 AM 33.9203 -88.8019 160° South 195 224 7,100  Level Memphis Center
Tue 11:45:20 AM 33.8989 -88.8011 178° South 192 221 7,100  Level Memphis Center
Tue 11:46:06 AM 33.8664 -88.7933 169° South 196 226 7,100  Level Memphis Center
Tue 11:46:15 AM 33.8489 -88.7908 173° South 197 227 7,100  Level Memphis Center
Tue 11:47:16 AM 33.7967 -88.7781 169° South 194 223 7,100 -313 Level Memphis Center
Tue 11:48:10 AM 33.7483 -88.7672 169° South 197 227 6,500 -626 Descending Memphis Center
Tue 11:49:11 AM 33.6964 -88.7553 169° South 196 226 5,900 -581 Descending Memphis Center
Tue 11:49:12 AM 33.6947 -88.7533 136° Southeast 198 228 5,900 -984 Level Memphis Center
Tue 11:50:12 AM 33.6381 -88.7475 175° South 195 224 4,900 -871 Descending Memphis Center
Tue 11:50:14 AM 33.6433 -88.7489 348° North 192 221 5,000 -563 Climbing Memphis Center
Tue 11:51:16 AM 33.5903 -88.7489 180° South 192 221 4,300 -531 Descending Memphis Center
Tue 11:52:07 AM 33.5400 -88.7497 181° South 185 213 4,000 -290 Descending Memphis Center
Tue 11:52:18 AM 33.5319 -88.7486 173° South 186 214 4,000  Level Memphis Center
Tue 11:53:08 AM 33.4919 -88.7469 178° South 177 204 4,000  Level Memphis Center
Tue 11:53:20 AM 33.4819 -88.7478 184° South 181 208 4,000  Level Memphis Center
Tue 11:54:15 AM 33.4336 -88.7419 174° South 180 207 4,000  Level Memphis Center
Tue 11:54:22 AM 33.4342 -88.7433 296° West 176 203 4,000  Level Memphis Center
Tue 11:55:16 AM 33.3856 -88.7342 171° South 181 208 4,000  Level Memphis Center
Tue 11:55:24 AM 33.3828 -88.7353 198° South 180 207 4,000  Level Memphis Center
Tue 11:56:11 AM 33.3397 -88.7292 173° South 182 209 4,000  Level Memphis Center
Tue 11:56:26 AM 33.3317 -88.7278 172° South 184 212 4,000  Level Memphis Center
Tue 11:57:11 AM 33.2853 -88.7214 173° South 181 208 4,000  Level Memphis Center
Tue 11:57:28 AM 33.2731 -88.7178 166° South 183 211 4,000  Level Memphis Center
Tue 11:58:18 AM 33.2583 -88.6842 118° Southeast 159 183 4,000  Level Memphis Center
Tue 11:58:31 AM 33.2594 -88.6736 83° East 172 198 4,000 -787 Level Memphis Center
Tue 11:59:19 AM 33.2606 -88.6319 88° East 154 177 3,200 -984 Descending Memphis Center
Tue 11:59:32 AM 33.2600 -88.6242 95° East 158 182 3,000 -885 Descending Memphis Center
Tue 12:00:20 PM 33.2878 -88.6047 30° Northeast 128 147 2,300 -194 Descending Memphis Center
Tue 12:00:34 PM 33.2664 -88.5775 133° Southeast 156 180 2,800 -197 Climbing Memphis Center
Tue 12:01:21 PM 33.3147 -88.5947 343° North 111 128 2,100 -368 Descending Memphis Center
Tue 12:02:28 PM 33.3483 -88.5922 North 111 128 2,100 -248 Level Memphis Center
Tue 12:03:22 PM 33.3753 -88.5922 360° North 108 124 1,600 -545 Descending Memphis Center
Tue 12:04:29 PM 33.4067 -88.5925 360° North 97 112 1,000 -492 Descending Memphis Center
Tue 12:05:24 PM 33.4233 -88.5925 360° North 76 87 600 -171 Descending Memphis Center
Tue 12:06:49 PM 33.4547 -88.5925 360° North 95 109 600 233 Level Memphis Center
Tue 12:07:07 PM 33.4631 -88.5925 360° North 101 116 1,000 1,139 Climbing Memphis Center
Tue 12:08:08 PM 33.4797 -88.6250 302° West 109 125 2,100 1,180 Climbing Memphis Center
Tue 12:09:09 PM 33.4964 -88.6547 304° West 113 130 3,400 1,235 Climbing Memphis Center
Tue 12:09:16 PM 33.5014 -88.6589 325° Northwest 126 145 3,500 1,180 Climbing Memphis Center
Tue 12:10:10 PM 33.5256 -88.6700 339° North 103 119 4,600 1,065 Climbing Memphis Center
Tue 12:10:18 PM 33.5250 -88.6703 203° Southwest 94 108 4,600 900 Level Memphis Center
Tue 12:11:10 PM 33.5528 -88.6800 344° North 106 122 5,500 871 Climbing Memphis Center
Tue 12:11:20 PM 33.5533 -88.6789 59° Northeast 105 121 5,500 492 Level Memphis Center
Tue 12:12:11 PM 33.5839 -88.6925 340° North 113 130 6,000 484 Climbing Memphis Center
Tue 12:12:22 PM 33.5894 -88.6939 348° North 111 128 6,000  Level Memphis Center
Tue 12:13:12 PM 33.6194 -88.7075 339° North 138 159 6,000  Level Memphis Center
Tue 12:13:24 PM 33.6258 -88.7114 333° Northwest 127 146 6,000 81 Level Memphis Center
Tue 12:14:26 PM 33.6628 -88.7236 345° North 135 155 6,100  Climbing Memphis Center
Tue 12:15:14 PM 33.6967 -88.7403 338° Northwest 142 163 6,000 -97 Descending Memphis Center
Tue 12:15:28 PM 33.7028 -88.7411 354° North 145 167 6,000  Level Memphis Center
Tue 12:16:20 PM 33.7361 -88.7578 337° Northwest 142 163 6,000  Level Memphis Center
Tue 12:16:30 PM 33.7383 -88.7561 32° Northeast 141 162 6,000  Level Memphis Center
Tue 12:17:32 PM 33.7767 -88.7742 339° North 144 166 6,000  Level Memphis Center
Tue 12:18:22 PM 33.8153 -88.7908 340° North 143 165 6,000  Level Memphis Center
Tue 12:18:34 PM 33.8225 -88.7928 347° North 145 167 6,000  Level Memphis Center
Tue 12:19:23 PM 33.8508 -88.8058 339° North 143 165 6,000  Level Memphis Center
Tue 12:19:36 PM 33.8597 -88.8086 345° North 143 165 6,000 100 Level Memphis Center
Tue 12:20:23 PM 33.8883 -88.8211 340° North 142 163 6,100  Climbing Memphis Center
Tue 12:20:38 PM 33.8967 -88.8244 342° North 142 163 6,000 -78 Descending Memphis Center
Tue 12:21:40 PM 33.9319 -88.8408 339° North 140 161 6,000 48 Level Memphis Center
Tue 12:22:42 PM 33.9758 -88.8597 340° North 142 163 6,100  Climbing Memphis Center
Tue 12:23:44 PM 34.0119 -88.8747 341° North 138 159 6,000  Descending Memphis Center
Tue 12:24:46 PM 34.0478 -88.8936 336° Northwest 138 159 6,100 48 Climbing Memphis Center
Tue 12:25:48 PM 34.0867 -88.9097 341° North 143 165 6,100 -48 Level Memphis Center
Tue 12:26:50 PM 34.1225 -88.9253 340° North 138 159 6,000  Descending Memphis Center
Tue 12:27:52 PM 34.1603 -88.9419 340° North 142 163 6,100  Climbing Memphis Center
Tue 12:28:54 PM 34.1967 -88.9597 338° Northwest 140 161 6,000  Descending Memphis Center
Tue 12:29:56 PM 34.2333 -88.9756 340° North 139 160 6,100 48 Climbing Memphis Center
Tue 12:30:58 PM 34.2764 -88.9950 340° North 140 161 6,100  Level Memphis Center
Tue 12:32:00 PM 34.3136 -89.0125 339° North 141 162 6,100  Level Memphis Center
Tue 12:33:02 PM 34.3514 -89.0297 339° North 143 165 6,100  Level Memphis Center
Tue 12:34:04 PM 34.3889 -89.0464 340° North 142 163 6,100  Level Memphis Center
Tue 12:35:06 PM 34.4261 -89.0644 338° Northwest 143 165 6,100  Level Memphis Center
Tue 12:36:08 PM 34.4636 -89.0817 339° North 143 165 6,100 -97 Level Memphis Center
Tue 12:37:10 PM 34.5014 -89.0992 339° North 144 166 5,900 -48 Descending Memphis Center
Tue 12:38:12 PM 34.5458 -89.1192 340° North 144 166 6,000 48 Climbing Memphis Center
Tue 12:39:14 PM 34.5836 -89.1372 339° North 144 166 6,000  Level Memphis Center
Tue 12:40:16 PM 34.6214 -89.1547 339° North 144 166 6,000  Level Memphis Center
Tue 12:41:18 PM 34.6606 -89.1722 340° North 146 168 6,000  Level Memphis Center
Tue 12:42:20 PM 34.6983 -89.1903 339° North 146 168 6,000  Level Memphis Center
Tue 12:43:22 PM 34.7364 -89.2086 338° Northwest 146 168 6,000  Level Memphis Center
Tue 12:44:24 PM 34.7747 -89.2264 339° North 146 168 6,000  Level Memphis Center
Tue 12:45:26 PM 34.8189 -89.2464 340° North 145 167 6,000 -242 Level Memphis Center
Tue 12:46:28 PM 34.8572 -89.2650 338° Northwest 146 168 5,500 -581 Descending Memphis Center
Tue 12:47:30 PM 34.8989 -89.2839 340° North 154 177 4,800 -387 Descending Memphis Center
Tue 12:48:32 PM 34.9383 -89.3003 341° North 154 177 4,700 -97 Descending Memphis Center

Login

Don't have an account? Register now (free) for customized features, flight alerts, and more!